sensor_id;sensor_type;location;lat;lon;timestamp;P1;durP1;ratioP1;P2;durP2;ratioP2
14774;SDS011;7479;47.042;15.160;2023-07-29T06:09:57;3.42;;;3.00;;
14774;SDS011;7479;47.042;15.160;2023-07-29T06:14:51;4.75;;;3.00;;
14774;SDS011;7479;47.042;15.160;2023-07-29T06:19:45;4.95;;;3.10;;
14774;SDS011;7479;47.042;15.160;2023-07-29T06:24:38;4.10;;;3.17;;
14774;SDS011;7479;47.042;15.160;2023-07-29T06:29:33;5.07;;;3.00;;
14774;SDS011;7479;47.042;15.160;2023-07-29T06:34:27;3.72;;;2.60;;
14774;SDS011;7479;47.042;15.160;2023-07-29T06:39:20;4.50;;;2.55;;
14774;SDS011;7479;47.042;15.160;2023-07-29T06:44:13;5.88;;;3.20;;
14774;SDS011;7479;47.042;15.160;2023-07-29T06:49:08;4.22;;;2.72;;
14774;SDS011;7479;47.042;15.160;2023-07-29T06:54:02;3.20;;;2.90;;
14774;SDS011;7479;47.042;15.160;2023-07-29T06:58:56;3.83;;;2.78;;
14774;SDS011;7479;47.042;15.160;2023-07-29T07:03:49;3.00;;;2.70;;
14774;SDS011;7479;47.042;15.160;2023-07-29T07:08:47;3.17;;;2.58;;
14774;SDS011;7479;47.042;15.160;2023-07-29T07:13:41;3.92;;;2.95;;
14774;SDS011;7479;47.042;15.160;2023-07-29T07:18:34;3.10;;;2.80;;
14774;SDS011;7479;47.042;15.160;2023-07-29T07:23:28;4.60;;;2.88;;
14774;SDS011;7479;47.042;15.160;2023-07-29T07:28:23;3.20;;;2.90;;
14774;SDS011;7479;47.042;15.160;2023-07-29T07:33:16;3.03;;;2.72;;
14774;SDS011;7479;47.042;15.160;2023-07-29T07:38:10;4.40;;;2.90;;
14774;SDS011;7479;47.042;15.160;2023-07-29T07:43:03;2.90;;;2.40;;
14774;SDS011;7479;47.042;15.160;2023-07-29T07:47:58;3.65;;;2.78;;
14774;SDS011;7479;47.042;15.160;2023-07-29T07:52:52;4.22;;;2.83;;
14774;SDS011;7479;47.042;15.160;2023-07-29T07:57:45;2.47;;;2.28;;
14774;SDS011;7479;47.042;15.160;2023-07-29T08:02:39;4.75;;;3.10;;
14774;SDS011;7479;47.042;15.160;2023-07-29T08:07:34;3.30;;;2.70;;
14774;SDS011;7479;47.042;15.160;2023-07-29T08:12:27;2.97;;;2.78;;
14774;SDS011;7479;47.042;15.160;2023-07-29T08:17:20;2.70;;;2.50;;
14774;SDS011;7479;47.042;15.160;2023-07-29T08:22:14;2.88;;;2.63;;
14774;SDS011;7479;47.042;15.160;2023-07-29T08:41:21;2.78;;;2.53;;
14774;SDS011;7479;47.042;15.160;2023-07-29T08:46:18;3.50;;;2.80;;
14774;SDS011;7479;47.042;15.160;2023-07-29T08:51:13;3.00;;;2.70;;
14774;SDS011;7479;47.042;15.160;2023-07-29T09:07:02;3.10;;;2.80;;
14774;SDS011;7479;47.042;15.160;2023-07-29T09:11:58;3.08;;;2.78;;
14774;SDS011;7479;47.042;15.160;2023-07-29T09:16:52;3.25;;;2.70;;
14774;SDS011;7479;47.042;15.160;2023-07-29T09:21:46;3.50;;;2.92;;
14774;SDS011;7479;47.042;15.160;2023-07-29T09:26:41;3.03;;;2.55;;
14774;SDS011;7479;47.042;15.160;2023-07-29T09:31:41;2.72;;;2.53;;
14774;SDS011;7479;47.042;15.160;2023-07-29T09:36:35;3.03;;;2.30;;
14774;SDS011;7479;47.042;15.160;2023-07-29T09:41:29;3.90;;;2.47;;
14774;SDS011;7479;47.042;15.160;2023-07-29T09:46:25;2.60;;;2.40;;
14774;SDS011;7479;47.042;15.160;2023-07-29T09:51:24;2.80;;;2.58;;
14774;SDS011;7479;47.042;15.160;2023-07-29T09:56:17;3.22;;;2.50;;
14774;SDS011;7479;47.042;15.160;2023-07-29T10:01:17;3.42;;;2.55;;
14774;SDS011;7479;47.042;15.160;2023-07-29T10:06:12;2.50;;;2.30;;
14774;SDS011;7479;47.042;15.160;2023-07-29T10:11:08;3.30;;;2.80;;
14774;SDS011;7479;47.042;15.160;2023-07-29T10:16:03;3.97;;;2.38;;
14774;SDS011;7479;47.042;15.160;2023-07-29T10:20:58;2.70;;;2.50;;
14774;SDS011;7479;47.042;15.160;2023-07-29T10:25:57;2.92;;;2.72;;
14774;SDS011;7479;47.042;15.160;2023-07-29T10:30:56;3.00;;;2.70;;
14774;SDS011;7479;47.042;15.160;2023-07-29T10:35:52;3.40;;;3.10;;
14774;SDS011;7479;47.042;15.160;2023-07-29T10:40:47;3.17;;;2.88;;
14774;SDS011;7479;47.042;15.160;2023-07-29T10:45:44;3.88;;;3.00;;
14774;SDS011;7479;47.042;15.160;2023-07-29T10:50:37;2.60;;;2.40;;
14774;SDS011;7479;47.042;15.160;2023-07-29T10:55:32;3.10;;;2.80;;
14774;SDS011;7479;47.042;15.160;2023-07-29T11:00:30;2.80;;;2.60;;
14774;SDS011;7479;47.042;15.160;2023-07-29T11:05:25;3.15;;;2.85;;
14774;SDS011;7479;47.042;15.160;2023-07-29T11:10:18;2.92;;;2.70;;
14774;SDS011;7479;47.042;15.160;2023-07-29T11:15:13;2.60;;;2.40;;
14774;SDS011;7479;47.042;15.160;2023-07-29T11:20:17;3.35;;;2.40;;
14774;SDS011;7479;47.042;15.160;2023-07-29T11:25:14;3.38;;;2.63;;
14774;SDS011;7479;47.042;15.160;2023-07-29T11:30:10;2.40;;;2.20;;
14774;SDS011;7479;47.042;15.160;2023-07-29T11:35:06;3.03;;;2.72;;
14774;SDS011;7479;47.042;15.160;2023-07-29T11:40:02;2.90;;;2.55;;
14774;SDS011;7479;47.042;15.160;2023-07-29T11:45:00;3.13;;;2.65;;
14774;SDS011;7479;47.042;15.160;2023-07-29T11:49:57;3.83;;;2.63;;
14774;SDS011;7479;47.042;15.160;2023-07-29T11:54:51;3.00;;;2.70;;
14774;SDS011;7479;47.042;15.160;2023-07-29T11:59:46;3.15;;;2.85;;
14774;SDS011;7479;47.042;15.160;2023-07-29T12:04:42;3.03;;;2.80;;
14774;SDS011;7479;47.042;15.160;2023-07-29T12:09:37;4.53;;;2.50;;
14774;SDS011;7479;47.042;15.160;2023-07-29T12:14:31;2.72;;;2.50;;
14774;SDS011;7479;47.042;15.160;2023-07-29T12:19:30;2.70;;;2.50;;
14774;SDS011;7479;47.042;15.160;2023-07-29T12:24:27;3.55;;;2.42;;
14774;SDS011;7479;47.042;15.160;2023-07-29T12:29:22;2.70;;;2.50;;
14774;SDS011;7479;47.042;15.160;2023-07-29T12:34:19;3.35;;;2.45;;
14774;SDS011;7479;47.042;15.160;2023-07-29T12:39:16;2.75;;;2.50;;
14774;SDS011;7479;47.042;15.160;2023-07-29T12:44:12;5.05;;;3.03;;
14774;SDS011;7479;47.042;15.160;2023-07-29T12:49:07;3.42;;;3.03;;
14774;SDS011;7479;47.042;15.160;2023-07-29T12:54:01;3.70;;;2.85;;
14774;SDS011;7479;47.042;15.160;2023-07-29T12:58:56;5.40;;;3.55;;
14774;SDS011;7479;47.042;15.160;2023-07-29T13:03:52;6.50;;;3.33;;
14774;SDS011;7479;47.042;15.160;2023-07-29T13:08:46;3.65;;;3.15;;
14774;SDS011;7479;47.042;15.160;2023-07-29T13:13:40;3.65;;;3.15;;
14774;SDS011;7479;47.042;15.160;2023-07-29T13:18:34;5.53;;;3.20;;
14774;SDS011;7479;47.042;15.160;2023-07-29T13:23:29;4.50;;;3.38;;
14774;SDS011;7479;47.042;15.160;2023-07-29T13:28:22;2.80;;;2.60;;
14774;SDS011;7479;47.042;15.160;2023-07-29T13:33:18;3.22;;;2.40;;
14774;SDS011;7479;47.042;15.160;2023-07-29T13:38:12;4.20;;;2.90;;
14774;SDS011;7479;47.042;15.160;2023-07-29T13:43:07;3.10;;;2.78;;
14774;SDS011;7479;47.042;15.160;2023-07-29T13:48:01;2.58;;;2.38;;
14774;SDS011;7479;47.042;15.160;2023-07-29T13:52:54;3.35;;;2.60;;
14774;SDS011;7479;47.042;15.160;2023-07-29T13:57:48;2.45;;;2.25;;
14774;SDS011;7479;47.042;15.160;2023-07-29T14:02:43;3.42;;;2.80;;
14774;SDS011;7479;47.042;15.160;2023-07-29T14:07:37;2.63;;;2.42;;
14774;SDS011;7479;47.042;15.160;2023-07-29T14:12:31;2.75;;;2.55;;
14774;SDS011;7479;47.042;15.160;2023-07-29T14:17:24;2.60;;;2.40;;
14774;SDS011;7479;47.042;15.160;2023-07-29T14:22:20;2.72;;;2.47;;
14774;SDS011;7479;47.042;15.160;2023-07-29T14:27:14;2.60;;;2.40;;
14774;SDS011;7479;47.042;15.160;2023-07-29T14:32:09;2.88;;;2.40;;
14774;SDS011;7479;47.042;15.160;2023-07-29T14:37:03;3.53;;;2.78;;
14774;SDS011;7479;47.042;15.160;2023-07-29T14:42:00;2.20;;;2.00;;
14774;SDS011;7479;47.042;15.160;2023-07-29T14:46:53;2.50;;;2.30;;
14774;SDS011;7479;47.042;15.160;2023-07-29T14:51:47;2.60;;;2.35;;
14774;SDS011;7479;47.042;15.160;2023-07-29T14:56:42;2.83;;;2.55;;
14774;SDS011;7479;47.042;15.160;2023-07-29T15:01:37;3.33;;;2.40;;
14774;SDS011;7479;47.042;15.160;2023-07-29T15:06:31;2.50;;;2.30;;
14774;SDS011;7479;47.042;15.160;2023-07-29T15:11:26;2.70;;;2.50;;
14774;SDS011;7479;47.042;15.160;2023-07-29T15:16:22;3.58;;;2.50;;
14774;SDS011;7479;47.042;15.160;2023-07-29T15:21:18;3.20;;;2.58;;
14774;SDS011;7479;47.042;15.160;2023-07-29T15:26:12;2.40;;;2.20;;
14774;SDS011;7479;47.042;15.160;2023-07-29T15:31:06;2.85;;;2.65;;
14774;SDS011;7479;47.042;15.160;2023-07-29T15:35:59;2.95;;;2.42;;
14774;SDS011;7479;47.042;15.160;2023-07-29T15:40:56;2.60;;;2.38;;
14774;SDS011;7479;47.042;15.160;2023-07-29T15:45:52;2.45;;;2.25;;
14774;SDS011;7479;47.042;15.160;2023-07-29T15:50:46;3.30;;;3.00;;
14774;SDS011;7479;47.042;15.160;2023-07-29T15:55:39;3.42;;;2.63;;
14774;SDS011;7479;47.042;15.160;2023-07-29T16:00:35;2.97;;;2.55;;
14774;SDS011;7479;47.042;15.160;2023-07-29T16:05:29;3.50;;;2.50;;
14774;SDS011;7479;47.042;15.160;2023-07-29T16:10:23;3.25;;;2.30;;
14774;SDS011;7479;47.042;15.160;2023-07-29T16:15:17;2.90;;;2.70;;
14774;SDS011;7479;47.042;15.160;2023-07-29T16:20:13;3.30;;;2.95;;
14774;SDS011;7479;47.042;15.160;2023-07-29T16:25:07;3.25;;;2.60;;
14774;SDS011;7479;47.042;15.160;2023-07-29T16:30:01;3.35;;;2.92;;
14774;SDS011;7479;47.042;15.160;2023-07-29T16:34:55;3.25;;;2.95;;
14774;SDS011;7479;47.042;15.160;2023-07-29T16:39:51;3.38;;;2.78;;
14774;SDS011;7479;47.042;15.160;2023-07-29T16:44:44;3.17;;;2.65;;
14774;SDS011;7479;47.042;15.160;2023-07-29T16:49:38;3.15;;;2.90;;
14774;SDS011;7479;47.042;15.160;2023-07-29T16:54:31;3.22;;;2.92;;
14774;SDS011;7479;47.042;15.160;2023-07-29T16:59:27;2.95;;;2.65;;
14774;SDS011;7479;47.042;15.160;2023-07-29T17:04:20;4.90;;;2.85;;
14774;SDS011;7479;47.042;15.160;2023-07-29T17:09:14;3.65;;;3.15;;
14774;SDS011;7479;47.042;15.160;2023-07-29T17:14:07;6.22;;;5.63;;
14774;SDS011;7479;47.042;15.160;2023-07-29T17:19:02;7.13;;;4.60;;
14774;SDS011;7479;47.042;15.160;2023-07-29T17:23:56;4.47;;;4.07;;
14774;SDS011;7479;47.042;15.160;2023-07-29T17:28:49;6.80;;;3.47;;
14774;SDS011;7479;47.042;15.160;2023-07-29T17:33:43;4.38;;;3.05;;
14774;SDS011;7479;47.042;15.160;2023-07-29T17:38:38;4.57;;;3.15;;
14774;SDS011;7479;47.042;15.160;2023-07-29T17:43:32;4.25;;;3.25;;
14774;SDS011;7479;47.042;15.160;2023-07-29T17:48:26;3.72;;;3.30;;
14774;SDS011;7479;47.042;15.160;2023-07-29T17:53:20;7.63;;;3.10;;
14774;SDS011;7479;47.042;15.160;2023-07-29T17:58:16;4.10;;;3.70;;
14774;SDS011;7479;47.042;15.160;2023-07-29T18:03:10;7.45;;;6.80;;
14774;SDS011;7479;47.042;15.160;2023-07-29T18:08:04;5.90;;;4.75;;
14774;SDS011;7479;47.042;15.160;2023-07-29T18:12:57;6.47;;;3.90;;
14774;SDS011;7479;47.042;15.160;2023-07-29T18:17:54;5.45;;;4.30;;
14774;SDS011;7479;47.042;15.160;2023-07-29T18:22:48;5.07;;;4.10;;
14774;SDS011;7479;47.042;15.160;2023-07-29T18:27:41;4.15;;;3.50;;
14774;SDS011;7479;47.042;15.160;2023-07-29T18:32:34;4.18;;;3.17;;
14774;SDS011;7479;47.042;15.160;2023-07-29T18:37:30;5.72;;;3.42;;
14774;SDS011;7479;47.042;15.160;2023-07-29T18:42:23;4.25;;;3.50;;
14774;SDS011;7479;47.042;15.160;2023-07-29T18:47:17;4.57;;;3.17;;
14774;SDS011;7479;47.042;15.160;2023-07-29T18:52:11;4.30;;;3.67;;
14774;SDS011;7479;47.042;15.160;2023-07-29T18:57:06;4.25;;;3.40;;
14774;SDS011;7479;47.042;15.160;2023-07-29T19:02:00;5.43;;;3.63;;
14774;SDS011;7479;47.042;15.160;2023-07-29T19:06:53;4.40;;;3.30;;
14774;SDS011;7479;47.042;15.160;2023-07-29T19:11:47;4.45;;;3.90;;
14774;SDS011;7479;47.042;15.160;2023-07-29T19:16:42;4.88;;;3.42;;
14774;SDS011;7479;47.042;15.160;2023-07-29T19:21:35;3.70;;;3.20;;
14774;SDS011;7479;47.042;15.160;2023-07-29T19:26:29;6.25;;;2.60;;
14774;SDS011;7479;47.042;15.160;2023-07-29T19:31:22;1.60;;;1.50;;
14774;SDS011;7479;47.042;15.160;2023-07-29T19:36:18;4.55;;;1.70;;
14774;SDS011;7479;47.042;15.160;2023-07-29T19:41:11;5.50;;;2.47;;
